sensor_id;sensor_type;location;lat;lon;timestamp;temperature;humidity
2539;DHT22;1280;49.760;9.664;2023-09-12T00:00:51;20.20;73.40
2539;DHT22;1280;49.760;9.664;2023-09-12T00:03:21;20.20;73.40
2539;DHT22;1280;49.760;9.664;2023-09-12T00:05:52;20.20;73.40
2539;DHT22;1280;49.760;9.664;2023-09-12T00:08:22;20.20;73.50
2539;DHT22;1280;49.760;9.664;2023-09-12T00:10:59;20.10;73.60
2539;DHT22;1280;49.760;9.664;2023-09-12T00:13:28;20.20;73.60
2539;DHT22;1280;49.760;9.664;2023-09-12T00:15:56;20.10;73.60
2539;DHT22;1280;49.760;9.664;2023-09-12T00:18:24;20.10;73.60
2539;DHT22;1280;49.760;9.664;2023-09-12T00:20:53;20.10;73.70
2539;DHT22;1280;49.760;9.664;2023-09-12T00:23:22;20.10;73.80
2539;DHT22;1280;49.760;9.664;2023-09-12T00:25:51;20.10;73.80
2539;DHT22;1280;49.760;9.664;2023-09-12T00:28:19;20.10;73.80
2539;DHT22;1280;49.760;9.664;2023-09-12T00:30:47;20.10;73.70
2539;DHT22;1280;49.760;9.664;2023-09-12T00:33:18;20.00;73.70
2539;DHT22;1280;49.760;9.664;2023-09-12T00:35:47;20.00;73.70
2539;DHT22;1280;49.760;9.664;2023-09-12T00:38:18;20.00;73.60
2539;DHT22;1280;49.760;9.664;2023-09-12T00:40:47;20.00;73.70
2539;DHT22;1280;49.760;9.664;2023-09-12T00:43:15;19.90;73.80
2539;DHT22;1280;49.760;9.664;2023-09-12T00:45:44;19.90;73.70
2539;DHT22;1280;49.760;9.664;2023-09-12T00:48:13;19.90;73.70
2539;DHT22;1280;49.760;9.664;2023-09-12T00:50:43;19.90;73.80
2539;DHT22;1280;49.760;9.664;2023-09-12T00:53:13;19.90;73.80
2539;DHT22;1280;49.760;9.664;2023-09-12T00:55:46;19.90;73.70
2539;DHT22;1280;49.760;9.664;2023-09-12T00:58:17;19.80;73.80
2539;DHT22;1280;49.760;9.664;2023-09-12T01:00:46;19.80;73.70
2539;DHT22;1280;49.760;9.664;2023-09-12T01:03:15;19.70;73.90
2539;DHT22;1280;49.760;9.664;2023-09-12T01:05:43;19.70;73.90
2539;DHT22;1280;49.760;9.664;2023-09-12T01:08:12;19.60;74.10
2539;DHT22;1280;49.760;9.664;2023-09-12T01:10:40;19.70;74.20
2539;DHT22;1280;49.760;9.664;2023-09-12T01:13:14;19.70;74.20
2539;DHT22;1280;49.760;9.664;2023-09-12T01:15:47;19.70;74.20
2539;DHT22;1280;49.760;9.664;2023-09-12T01:18:16;19.70;74.20
2539;DHT22;1280;49.760;9.664;2023-09-12T01:20:55;19.70;74.20
2539;DHT22;1280;49.760;9.664;2023-09-12T01:23:38;19.70;74.30
2539;DHT22;1280;49.760;9.664;2023-09-12T01:26:28;19.70;74.30
2539;DHT22;1280;49.760;9.664;2023-09-12T01:28:59;19.70;74.30
2539;DHT22;1280;49.760;9.664;2023-09-12T01:35:41;19.60;74.20
2539;DHT22;1280;49.760;9.664;2023-09-12T01:38:10;19.50;74.30
2539;DHT22;1280;49.760;9.664;2023-09-12T01:40:43;19.50;74.30
2539;DHT22;1280;49.760;9.664;2023-09-12T01:43:13;19.50;74.40
2539;DHT22;1280;49.760;9.664;2023-09-12T01:45:46;19.50;74.40
2539;DHT22;1280;49.760;9.664;2023-09-12T01:48:19;19.50;74.40
2539;DHT22;1280;49.760;9.664;2023-09-12T01:50:49;19.50;74.40
2539;DHT22;1280;49.760;9.664;2023-09-12T01:53:18;19.50;74.30
2539;DHT22;1280;49.760;9.664;2023-09-12T01:55:47;19.40;74.30
2539;DHT22;1280;49.760;9.664;2023-09-12T01:58:16;19.40;74.30
2539;DHT22;1280;49.760;9.664;2023-09-12T02:00:45;19.40;74.30
2539;DHT22;1280;49.760;9.664;2023-09-12T02:03:13;19.30;74.30
2539;DHT22;1280;49.760;9.664;2023-09-12T02:05:42;19.40;74.40
2539;DHT22;1280;49.760;9.664;2023-09-12T02:08:10;19.40;74.20
2539;DHT22;1280;49.760;9.664;2023-09-12T02:10:38;19.30;74.20
2539;DHT22;1280;49.760;9.664;2023-09-12T02:13:06;19.30;74.30
2539;DHT22;1280;49.760;9.664;2023-09-12T02:15:35;19.30;74.30
2539;DHT22;1280;49.760;9.664;2023-09-12T02:18:06;19.30;74.40
2539;DHT22;1280;49.760;9.664;2023-09-12T02:20:38;19.30;74.40
2539;DHT22;1280;49.760;9.664;2023-09-12T02:23:06;19.30;74.40
2539;DHT22;1280;49.760;9.664;2023-09-12T02:25:34;19.20;74.30
2539;DHT22;1280;49.760;9.664;2023-09-12T02:28:02;19.20;74.30
2539;DHT22;1280;49.760;9.664;2023-09-12T02:30:30;19.20;74.40
2539;DHT22;1280;49.760;9.664;2023-09-12T02:32:59;19.20;74.40
2539;DHT22;1280;49.760;9.664;2023-09-12T02:35:29;19.20;74.50
2539;DHT22;1280;49.760;9.664;2023-09-12T02:37:57;19.10;74.50
2539;DHT22;1280;49.760;9.664;2023-09-12T02:40:25;19.10;74.60
2539;DHT22;1280;49.760;9.664;2023-09-12T02:42:53;19.10;74.50
2539;DHT22;1280;49.760;9.664;2023-09-12T02:45:21;19.10;74.50
2539;DHT22;1280;49.760;9.664;2023-09-12T02:47:49;19.00;74.60
2539;DHT22;1280;49.760;9.664;2023-09-12T02:50:17;19.00;74.60
2539;DHT22;1280;49.760;9.664;2023-09-12T02:52:47;18.90;74.70
2539;DHT22;1280;49.760;9.664;2023-09-12T02:55:15;18.90;74.70
2539;DHT22;1280;49.760;9.664;2023-09-12T02:57:43;18.90;74.70
2539;DHT22;1280;49.760;9.664;2023-09-12T03:00:12;18.90;74.70
2539;DHT22;1280;49.760;9.664;2023-09-12T03:02:40;18.90;74.80
2539;DHT22;1280;49.760;9.664;2023-09-12T03:05:08;18.90;74.80
2539;DHT22;1280;49.760;9.664;2023-09-12T03:07:37;18.90;74.80
2539;DHT22;1280;49.760;9.664;2023-09-12T03:10:07;18.90;74.70
2539;DHT22;1280;49.760;9.664;2023-09-12T03:12:35;18.80;74.70
2539;DHT22;1280;49.760;9.664;2023-09-12T03:15:04;18.80;74.60
2539;DHT22;1280;49.760;9.664;2023-09-12T03:17:36;18.70;74.70
2539;DHT22;1280;49.760;9.664;2023-09-12T03:20:05;18.70;74.80
2539;DHT22;1280;49.760;9.664;2023-09-12T03:22:34;18.70;74.80
2539;DHT22;1280;49.760;9.664;2023-09-12T03:25:07;18.70;74.80
2539;DHT22;1280;49.760;9.664;2023-09-12T03:27:35;18.60;74.80
2539;DHT22;1280;49.760;9.664;2023-09-12T03:30:04;18.60;74.90
2539;DHT22;1280;49.760;9.664;2023-09-12T03:32:33;18.60;74.90
2539;DHT22;1280;49.760;9.664;2023-09-12T03:35:01;18.60;75.00
2539;DHT22;1280;49.760;9.664;2023-09-12T03:37:29;18.60;75.10
2539;DHT22;1280;49.760;9.664;2023-09-12T03:39:57;18.60;75.20
2539;DHT22;1280;49.760;9.664;2023-09-12T03:42:26;18.60;75.30
2539;DHT22;1280;49.760;9.664;2023-09-12T03:45:09;18.70;75.30
2539;DHT22;1280;49.760;9.664;2023-09-12T03:47:43;18.70;75.20
2539;DHT22;1280;49.760;9.664;2023-09-12T03:50:15;18.70;75.10
2539;DHT22;1280;49.760;9.664;2023-09-12T03:52:43;18.70;75.10
2539;DHT22;1280;49.760;9.664;2023-09-12T03:55:11;18.70;75.10
2539;DHT22;1280;49.760;9.664;2023-09-12T03:57:41;18.60;75.00
2539;DHT22;1280;49.760;9.664;2023-09-12T04:00:10;18.60;75.00
2539;DHT22;1280;49.760;9.664;2023-09-12T04:02:46;18.60;75.00
2539;DHT22;1280;49.760;9.664;2023-09-12T04:05:14;18.50;75.00
2539;DHT22;1280;49.760;9.664;2023-09-12T04:07:42;18.50;75.10
2539;DHT22;1280;49.760;9.664;2023-09-12T04:10:10;18.50;75.10
2539;DHT22;1280;49.760;9.664;2023-09-12T04:12:40;18.50;75.40
2539;DHT22;1280;49.760;9.664;2023-09-12T04:15:09;18.50;75.40
2539;DHT22;1280;49.760;9.664;2023-09-12T04:17:37;18.50;75.40
2539;DHT22;1280;49.760;9.664;2023-09-12T04:20:06;18.50;75.40
2539;DHT22;1280;49.760;9.664;2023-09-12T04:22:34;18.40;75.60
2539;DHT22;1280;49.760;9.664;2023-09-12T04:25:04;18.40;75.60
2539;DHT22;1280;49.760;9.664;2023-09-12T04:27:32;18.40;75.60
2539;DHT22;1280;49.760;9.664;2023-09-12T04:30:02;18.40;75.80
2539;DHT22;1280;49.760;9.664;2023-09-12T04:32:31;18.40;75.90
2539;DHT22;1280;49.760;9.664;2023-09-12T04:35:00;18.50;75.90
2539;DHT22;1280;49.760;9.664;2023-09-12T04:37:28;18.50;75.90
2539;DHT22;1280;49.760;9.664;2023-09-12T04:39:56;18.50;75.60
2539;DHT22;1280;49.760;9.664;2023-09-12T04:42:24;18.50;75.60
2539;DHT22;1280;49.760;9.664;2023-09-12T04:44:52;18.50;75.60
2539;DHT22;1280;49.760;9.664;2023-09-12T04:47:22;18.40;75.60
2539;DHT22;1280;49.760;9.664;2023-09-12T04:49:50;18.40;75.40
2539;DHT22;1280;49.760;9.664;2023-09-12T04:52:18;18.40;75.40
2539;DHT22;1280;49.760;9.664;2023-09-12T04:54:46;18.30;75.40
2539;DHT22;1280;49.760;9.664;2023-09-12T04:57:15;18.30;75.60
2539;DHT22;1280;49.760;9.664;2023-09-12T04:59:43;18.30;75.50
2539;DHT22;1280;49.760;9.664;2023-09-12T05:02:13;18.30;75.60
2539;DHT22;1280;49.760;9.664;2023-09-12T05:04:43;18.30;75.50
2539;DHT22;1280;49.760;9.664;2023-09-12T05:07:11;18.30;75.40
2539;DHT22;1280;49.760;9.664;2023-09-12T05:09:39;18.20;75.40
2539;DHT22;1280;49.760;9.664;2023-09-12T05:12:07;18.20;75.60
2539;DHT22;1280;49.760;9.664;2023-09-12T05:14:42;18.20;75.70
2539;DHT22;1280;49.760;9.664;2023-09-12T05:17:10;18.20;75.90
2539;DHT22;1280;49.760;9.664;2023-09-12T05:19:39;18.20;75.90
2539;DHT22;1280;49.760;9.664;2023-09-12T05:22:09;18.30;76.00
2539;DHT22;1280;49.760;9.664;2023-09-12T05:24:38;18.30;76.00
2539;DHT22;1280;49.760;9.664;2023-09-12T05:27:06;18.40;75.90
2539;DHT22;1280;49.760;9.664;2023-09-12T05:29:34;18.40;75.90
2539;DHT22;1280;49.760;9.664;2023-09-12T05:32:02;18.40;75.90
2539;DHT22;1280;49.760;9.664;2023-09-12T05:34:32;18.40;75.80
2539;DHT22;1280;49.760;9.664;2023-09-12T05:37:00;18.40;75.90
2539;DHT22;1280;49.760;9.664;2023-09-12T05:39:29;18.40;75.90
2539;DHT22;1280;49.760;9.664;2023-09-12T05:41:58;18.40;75.90
2539;DHT22;1280;49.760;9.664;2023-09-12T05:44:26;18.50;75.90
2539;DHT22;1280;49.760;9.664;2023-09-12T05:46:54;18.50;75.80
2539;DHT22;1280;49.760;9.664;2023-09-12T05:49:23;18.50;75.90
2539;DHT22;1280;49.760;9.664;2023-09-12T05:51:51;18.50;75.90
2539;DHT22;1280;49.760;9.664;2023-09-12T05:54:19;18.50;76.10
2539;DHT22;1280;49.760;9.664;2023-09-12T05:56:49;18.50;76.10
2539;DHT22;1280;49.760;9.664;2023-09-12T05:59:18;18.60;76.00
2539;DHT22;1280;49.760;9.664;2023-09-12T06:01:45;18.60;76.00
2539;DHT22;1280;49.760;9.664;2023-09-12T06:04:15;18.70;76.10
2539;DHT22;1280;49.760;9.664;2023-09-12T06:06:43;18.70;76.20
2539;DHT22;1280;49.760;9.664;2023-09-12T06:09:11;18.80;76.20
2539;DHT22;1280;49.760;9.664;2023-09-12T06:11:39;18.90;76.30
2539;DHT22;1280;49.760;9.664;2023-09-12T06:14:09;18.90;76.40
2539;DHT22;1280;49.760;9.664;2023-09-12T06:16:37;19.00;76.50
2539;DHT22;1280;49.760;9.664;2023-09-12T06:19:05;19.10;76.50
2539;DHT22;1280;49.760;9.664;2023-09-12T06:21:33;19.10;76.60
2539;DHT22;1280;49.760;9.664;2023-09-12T06:24:11;19.20;76.80
2539;DHT22;1280;49.760;9.664;2023-09-12T06:26:40;19.20;77.20
2539;DHT22;1280;49.760;9.664;2023-09-12T06:29:09;19.30;77.20
2539;DHT22;1280;49.760;9.664;2023-09-12T06:31:37;19.30;77.40
2539;DHT22;1280;49.760;9.664;2023-09-12T06:34:06;19.30;77.70
2539;DHT22;1280;49.760;9.664;2023-09-12T06:36:33;19.40;77.90
2539;DHT22;1280;49.760;9.664;2023-09-12T06:39:02;19.50;78.00
2539;DHT22;1280;49.760;9.664;2023-09-12T06:41:32;19.60;78.20
2539;DHT22;1280;49.760;9.664;2023-09-12T06:44:00;19.60;78.30
2539;DHT22;1280;49.760;9.664;2023-09-12T06:46:32;19.60;78.60
2539;DHT22;1280;49.760;9.664;2023-09-12T06:49:02;19.60;78.90
2539;DHT22;1280;49.760;9.664;2023-09-12T06:51:30;19.70;79.00
2539;DHT22;1280;49.760;9.664;2023-09-12T06:54:04;19.80;79.10
2539;DHT22;1280;49.760;9.664;2023-09-12T06:56:32;19.80;79.10
2539;DHT22;1280;49.760;9.664;2023-09-12T06:59:04;19.90;79.20
2539;DHT22;1280;49.760;9.664;2023-09-12T07:01:34;20.00;79.30
2539;DHT22;1280;49.760;9.664;2023-09-12T07:04:02;20.00;79.40
2539;DHT22;1280;49.760;9.664;2023-09-12T07:06:30;20.10;79.40
2539;DHT22;1280;49.760;9.664;2023-09-12T07:08:59;20.20;79.40
2539;DHT22;1280;49.760;9.664;2023-09-12T07:11:27;20.30;79.40
2539;DHT22;1280;49.760;9.664;2023-09-12T07:13:55;20.30;79.40
2539;DHT22;1280;49.760;9.664;2023-09-12T07:16:23;20.30;79.60
2539;DHT22;1280;49.760;9.664;2023-09-12T07:18:53;20.40;79.70
2539;DHT22;1280;49.760;9.664;2023-09-12T07:21:22;20.40;79.70
2539;DHT22;1280;49.760;9.664;2023-09-12T07:23:50;20.50;79.80
2539;DHT22;1280;49.760;9.664;2023-09-12T07:26:18;20.50;79.90
2539;DHT22;1280;49.760;9.664;2023-09-12T07:28:46;20.60;79.90
2539;DHT22;1280;49.760;9.664;2023-09-12T07:31:14;20.70;79.80
2539;DHT22;1280;49.760;9.664;2023-09-12T07:33:42;20.80;79.70
2539;DHT22;1280;49.760;9.664;2023-09-12T07:36:12;20.90;79.70
2539;DHT22;1280;49.760;9.664;2023-09-12T07:38:40;20.90;79.70
2539;DHT22;1280;49.760;9.664;2023-09-12T07:41:09;21.00;79.70
2539;DHT22;1280;49.760;9.664;2023-09-12T07:43:37;21.00;79.70
2539;DHT22;1280;49.760;9.664;2023-09-12T07:46:11;21.10;79.70
2539;DHT22;1280;49.760;9.664;2023-09-12T07:48:39;21.10;79.60
2539;DHT22;1280;49.760;9.664;2023-09-12T07:51:17;21.10;79.60
2539;DHT22;1280;49.760;9.664;2023-09-12T07:53:45;21.10;79.50
2539;DHT22;1280;49.760;9.664;2023-09-12T07:56:13;21.10;79.50
2539;DHT22;1280;49.760;9.664;2023-09-12T07:58:41;21.10;79.50
2539;DHT22;1280;49.760;9.664;2023-09-12T08:01:10;21.10;79.50
2539;DHT22;1280;49.760;9.664;2023-09-12T08:03:39;21.10;79.50
2539;DHT22;1280;49.760;9.664;2023-09-12T08:06:08;21.20;79.50
2539;DHT22;1280;49.760;9.664;2023-09-12T08:08:44;21.20;79.50
2539;DHT22;1280;49.760;9.664;2023-09-12T08:11:12;21.30;79.40
2539;DHT22;1280;49.760;9.664;2023-09-12T08:13:40;21.30;79.40
2539;DHT22;1280;49.760;9.664;2023-09-12T08:16:08;21.30;79.40
2539;DHT22;1280;49.760;9.664;2023-09-12T08:18:36;21.30;79.30
2539;DHT22;1280;49.760;9.664;2023-09-12T08:21:10;21.30;79.30
2539;DHT22;1280;49.760;9.664;2023-09-12T08:23:40;21.30;79.40
2539;DHT22;1280;49.760;9.664;2023-09-12T08:26:09;21.40;79.40
2539;DHT22;1280;49.760;9.664;2023-09-12T08:28:37;21.40;79.30
2539;DHT22;1280;49.760;9.664;2023-09-12T08:31:06;21.40;79.30
2539;DHT22;1280;49.760;9.664;2023-09-12T08:33:34;21.40;79.30
2539;DHT22;1280;49.760;9.664;2023-09-12T08:36:03;21.40;79.20
2539;DHT22;1280;49.760;9.664;2023-09-12T08:38:31;21.40;79.40
2539;DHT22;1280;49.760;9.664;2023-09-12T08:41:00;21.50;79.40
2539;DHT22;1280;49.760;9.664;2023-09-12T08:43:28;21.50;79.30
2539;DHT22;1280;49.760;9.664;2023-09-12T08:45:56;21.50;79.40
2539;DHT22;1280;49.760;9.664;2023-09-12T08:48:25;21.60;79.40
2539;DHT22;1280;49.760;9.664;2023-09-12T08:50:53;21.60;79.40
2539;DHT22;1280;49.760;9.664;2023-09-12T08:53:21;21.70;79.30
2539;DHT22;1280;49.760;9.664;2023-09-12T08:55:49;21.80;79.30
2539;DHT22;1280;49.760;9.664;2023-09-12T08:58:21;21.80;79.30
2539;DHT22;1280;49.760;9.664;2023-09-12T09:00:49;21.90;79.30
2539;DHT22;1280;49.760;9.664;2023-09-12T09:03:18;22.00;79.30
2539;DHT22;1280;49.760;9.664;2023-09-12T09:05:48;22.10;79.20
2539;DHT22;1280;49.760;9.664;2023-09-12T09:08:17;22.10;79.10
2539;DHT22;1280;49.760;9.664;2023-09-12T09:10:55;22.20;79.10
2539;DHT22;1280;49.760;9.664;2023-09-12T09:13:24;22.30;79.00
2539;DHT22;1280;49.760;9.664;2023-09-12T09:16:10;22.30;79.00
2539;DHT22;1280;49.760;9.664;2023-09-12T09:18:56;22.40;79.00
2539;DHT22;1280;49.760;9.664;2023-09-12T09:21:26;22.50;79.00
2539;DHT22;1280;49.760;9.664;2023-09-12T09:23:58;22.50;79.00
2539;DHT22;1280;49.760;9.664;2023-09-12T09:26:41;22.60;78.90
2539;DHT22;1280;49.760;9.664;2023-09-12T09:29:14;22.70;78.90
2539;DHT22;1280;49.760;9.664;2023-09-12T09:31:44;22.70;79.00
2539;DHT22;1280;49.760;9.664;2023-09-12T09:34:13;22.80;78.70
2539;DHT22;1280;49.760;9.664;2023-09-12T09:36:46;22.80;78.70
2539;DHT22;1280;49.760;9.664;2023-09-12T09:39:16;22.90;78.70
2539;DHT22;1280;49.760;9.664;2023-09-12T09:41:47;22.90;78.50
2539;DHT22;1280;49.760;9.664;2023-09-12T09:44:18;23.00;78.50
2539;DHT22;1280;49.760;9.664;2023-09-12T09:46:50;23.00;78.30
2539;DHT22;1280;49.760;9.664;2023-09-12T09:49:20;23.10;78.20
2539;DHT22;1280;49.760;9.664;2023-09-12T09:51:48;23.10;78.10
2539;DHT22;1280;49.760;9.664;2023-09-12T09:54:17;23.20;78.00
2539;DHT22;1280;49.760;9.664;2023-09-12T09:56:45;23.20;77.80
2539;DHT22;1280;49.760;9.664;2023-09-12T09:59:15;23.30;77.80
2539;DHT22;1280;49.760;9.664;2023-09-12T10:01:46;23.30;77.80
2539;DHT22;1280;49.760;9.664;2023-09-12T10:04:15;23.40;77.60
2539;DHT22;1280;49.760;9.664;2023-09-12T10:06:45;23.50;77.60
2539;DHT22;1280;49.760;9.664;2023-09-12T10:09:14;23.50;77.30
2539;DHT22;1280;49.760;9.664;2023-09-12T10:11:43;23.60;77.30
2539;DHT22;1280;49.760;9.664;2023-09-12T10:14:11;23.70;77.20
2539;DHT22;1280;49.760;9.664;2023-09-12T10:16:46;23.80;77.00
2539;DHT22;1280;49.760;9.664;2023-09-12T10:19:17;23.90;76.80
2539;DHT22;1280;49.760;9.664;2023-09-12T10:21:49;24.00;76.80
2539;DHT22;1280;49.760;9.664;2023-09-12T10:24:18;24.10;76.50
2539;DHT22;1280;49.760;9.664;2023-09-12T10:26:50;24.20;76.20
2539;DHT22;1280;49.760;9.664;2023-09-12T10:29:18;24.20;75.80
2539;DHT22;1280;49.760;9.664;2023-09-12T10:31:48;24.30;75.70
2539;DHT22;1280;49.760;9.664;2023-09-12T10:34:16;24.40;75.40
2539;DHT22;1280;49.760;9.664;2023-09-12T10:36:45;24.40;75.20
2539;DHT22;1280;49.760;9.664;2023-09-12T10:39:15;24.50;75.00
2539;DHT22;1280;49.760;9.664;2023-09-12T10:41:43;24.60;74.90
2539;DHT22;1280;49.760;9.664;2023-09-12T10:44:15;24.70;74.70
2539;DHT22;1280;49.760;9.664;2023-09-12T10:46:44;24.70;74.60
2539;DHT22;1280;49.760;9.664;2023-09-12T10:49:15;24.80;74.30
2539;DHT22;1280;49.760;9.664;2023-09-12T10:51:44;24.80;73.90
2539;DHT22;1280;49.760;9.664;2023-09-12T10:54:14;24.90;73.50
2539;DHT22;1280;49.760;9.664;2023-09-12T10:56:42;25.00;73.40
2539;DHT22;1280;49.760;9.664;2023-09-12T10:59:13;25.10;73.40
2539;DHT22;1280;49.760;9.664;2023-09-12T11:01:43;25.20;73.30
2539;DHT22;1280;49.760;9.664;2023-09-12T11:04:34;25.30;73.10
2539;DHT22;1280;49.760;9.664;2023-09-12T11:07:29;25.40;72.90
2539;DHT22;1280;49.760;9.664;2023-09-12T11:10:20;25.50;72.60
2539;DHT22;1280;49.760;9.664;2023-09-12T11:12:49;25.60;72.50
2539;DHT22;1280;49.760;9.664;2023-09-12T11:15:19;25.60;72.20
2539;DHT22;1280;49.760;9.664;2023-09-12T11:17:48;25.70;71.90
2539;DHT22;1280;49.760;9.664;2023-09-12T11:20:18;25.70;72.10
2539;DHT22;1280;49.760;9.664;2023-09-12T11:22:50;25.80;72.00
2539;DHT22;1280;49.760;9.664;2023-09-12T11:25:20;25.80;71.90
2539;DHT22;1280;49.760;9.664;2023-09-12T11:28:03;25.90;71.40
2539;DHT22;1280;49.760;9.664;2023-09-12T11:30:32;25.90;71.00
2539;DHT22;1280;49.760;9.664;2023-09-12T11:33:04;26.00;70.90
2539;DHT22;1280;49.760;9.664;2023-09-12T11:35:37;26.00;70.20
2539;DHT22;1280;49.760;9.664;2023-09-12T11:38:10;26.00;69.90
2539;DHT22;1280;49.760;9.664;2023-09-12T11:40:42;26.00;69.90
2539;DHT22;1280;49.760;9.664;2023-09-12T11:43:20;26.10;69.80
2539;DHT22;1280;49.760;9.664;2023-09-12T11:45:49;26.20;69.40
2539;DHT22;1280;49.760;9.664;2023-09-12T11:48:18;26.20;69.30
2539;DHT22;1280;49.760;9.664;2023-09-12T11:50:52;26.30;69.00
2539;DHT22;1280;49.760;9.664;2023-09-12T11:53:22;26.30;68.50
2539;DHT22;1280;49.760;9.664;2023-09-12T11:55:54;26.30;68.40
2539;DHT22;1280;49.760;9.664;2023-09-12T11:58:22;26.40;68.50
2539;DHT22;1280;49.760;9.664;2023-09-12T12:00:51;26.40;68.40
2539;DHT22;1280;49.760;9.664;2023-09-12T12:03:20;26.50;68.10
2539;DHT22;1280;49.760;9.664;2023-09-12T12:05:50;26.60;67.70
2539;DHT22;1280;49.760;9.664;2023-09-12T12:08:19;26.60;67.20
2539;DHT22;1280;49.760;9.664;2023-09-12T12:10:58;26.60;67.10
2539;DHT22;1280;49.760;9.664;2023-09-12T12:13:27;26.70;66.90
2539;DHT22;1280;49.760;9.664;2023-09-12T12:15:57;26.70;66.70
2539;DHT22;1280;49.760;9.664;2023-09-12T12:18:25;26.80;66.40
2539;DHT22;1280;49.760;9.664;2023-09-12T12:20:55;26.70;66.10
2539;DHT22;1280;49.760;9.664;2023-09-12T12:23:24;26.70;66.00
2539;DHT22;1280;49.760;9.664;2023-09-12T12:25:52;26.70;66.00
2539;DHT22;1280;49.760;9.664;2023-09-12T12:28:20;26.80;65.90
2539;DHT22;1280;49.760;9.664;2023-09-12T12:30:51;26.80;65.70
2539;DHT22;1280;49.760;9.664;2023-09-12T12:33:20;26.90;65.50
2539;DHT22;1280;49.760;9.664;2023-09-12T12:36:10;26.90;65.50
2539;DHT22;1280;49.760;9.664;2023-09-12T12:38:38;27.00;65.30
2539;DHT22;1280;49.760;9.664;2023-09-12T12:41:23;27.10;65.10
2539;DHT22;1280;49.760;9.664;2023-09-12T12:43:52;27.20;65.00
2539;DHT22;1280;49.760;9.664;2023-09-12T12:46:23;27.20;64.80
2539;DHT22;1280;49.760;9.664;2023-09-12T12:48:51;27.30;64.70
2539;DHT22;1280;49.760;9.664;2023-09-12T12:51:23;27.30;64.60
2539;DHT22;1280;49.760;9.664;2023-09-12T12:53:52;27.40;64.50
2539;DHT22;1280;49.760;9.664;2023-09-12T12:56:23;27.50;64.70
2539;DHT22;1280;49.760;9.664;2023-09-12T12:58:59;27.50;64.80
2539;DHT22;1280;49.760;9.664;2023-09-12T13:01:32;27.60;64.40
2539;DHT22;1280;49.760;9.664;2023-09-12T13:04:01;27.70;64.10
2539;DHT22;1280;49.760;9.664;2023-09-12T13:06:30;27.70;64.10
2539;DHT22;1280;49.760;9.664;2023-09-12T13:09:03;27.70;63.90
2539;DHT22;1280;49.760;9.664;2023-09-12T13:11:33;27.80;63.80
2539;DHT22;1280;49.760;9.664;2023-09-12T13:14:08;27.80;63.50
2539;DHT22;1280;49.760;9.664;2023-09-12T13:16:38;27.80;63.40
2539;DHT22;1280;49.760;9.664;2023-09-12T13:19:09;27.80;63.10
2539;DHT22;1280;49.760;9.664;2023-09-12T13:21:39;27.90;62.90
2539;DHT22;1280;49.760;9.664;2023-09-12T13:24:09;27.80;63.00
2539;DHT22;1280;49.760;9.664;2023-09-12T13:26:37;27.90;63.10
2539;DHT22;1280;49.760;9.664;2023-09-12T13:29:06;27.90;63.20
2539;DHT22;1280;49.760;9.664;2023-09-12T13:31:34;28.10;63.00
2539;DHT22;1280;49.760;9.664;2023-09-12T13:34:02;28.10;62.70
2539;DHT22;1280;49.760;9.664;2023-09-12T13:36:30;28.10;62.50
2539;DHT22;1280;49.760;9.664;2023-09-12T13:39:00;28.00;62.30
2539;DHT22;1280;49.760;9.664;2023-09-12T13:41:29;28.00;62.10
2539;DHT22;1280;49.760;9.664;2023-09-12T13:43:57;28.00;62.30
2539;DHT22;1280;49.760;9.664;2023-09-12T13:46:25;28.00;62.40
2539;DHT22;1280;49.760;9.664;2023-09-12T13:48:53;28.10;62.50
2539;DHT22;1280;49.760;9.664;2023-09-12T13:51:21;28.10;62.60
2539;DHT22;1280;49.760;9.664;2023-09-12T13:53:49;28.20;62.40
2539;DHT22;1280;49.760;9.664;2023-09-12T13:56:19;28.20;62.10
2539;DHT22;1280;49.760;9.664;2023-09-12T13:58:46;28.20;61.80
2539;DHT22;1280;49.760;9.664;2023-09-12T14:01:17;28.20;61.70
2539;DHT22;1280;49.760;9.664;2023-09-12T14:04:00;28.30;61.80
2539;DHT22;1280;49.760;9.664;2023-09-12T14:06:29;28.30;61.60
2539;DHT22;1280;49.760;9.664;2023-09-12T14:08:58;28.30;61.40
2539;DHT22;1280;49.760;9.664;2023-09-12T14:11:28;28.40;61.40
2539;DHT22;1280;49.760;9.664;2023-09-12T14:14:03;28.40;61.30
2539;DHT22;1280;49.760;9.664;2023-09-12T14:16:34;28.40;61.30
2539;DHT22;1280;49.760;9.664;2023-09-12T14:19:02;28.40;61.20
2539;DHT22;1280;49.760;9.664;2023-09-12T14:21:33;28.50;61.30
2539;DHT22;1280;49.760;9.664;2023-09-12T14:24:04;28.50;61.30
2539;DHT22;1280;49.760;9.664;2023-09-12T14:26:34;28.50;61.20
2539;DHT22;1280;49.760;9.664;2023-09-12T14:29:04;28.50;61.10
2539;DHT22;1280;49.760;9.664;2023-09-12T14:31:32;28.60;61.10
2539;DHT22;1280;49.760;9.664;2023-09-12T14:34:03;28.60;61.00
2539;DHT22;1280;49.760;9.664;2023-09-12T14:36:32;28.60;60.90
2539;DHT22;1280;49.760;9.664;2023-09-12T14:39:00;28.70;60.90
2539;DHT22;1280;49.760;9.664;2023-09-12T14:41:28;28.70;61.00
2539;DHT22;1280;49.760;9.664;2023-09-12T14:43:59;28.70;61.10
2539;DHT22;1280;49.760;9.664;2023-09-12T14:46:27;28.80;61.00
2539;DHT22;1280;49.760;9.664;2023-09-12T14:48:55;28.80;61.00
2539;DHT22;1280;49.760;9.664;2023-09-12T14:51:28;28.70;61.00
2539;DHT22;1280;49.760;9.664;2023-09-12T14:54:01;28.70;61.10
2539;DHT22;1280;49.760;9.664;2023-09-12T14:56:29;28.70;61.00
2539;DHT22;1280;49.760;9.664;2023-09-12T14:58:59;28.70;60.70
2539;DHT22;1280;49.760;9.664;2023-09-12T15:01:28;28.60;60.90
2539;DHT22;1280;49.760;9.664;2023-09-12T15:03:57;28.60;61.30
2539;DHT22;1280;49.760;9.664;2023-09-12T15:06:26;28.70;61.30
2539;DHT22;1280;49.760;9.664;2023-09-12T15:08:54;28.80;61.40
2539;DHT22;1280;49.760;9.664;2023-09-12T15:11:22;28.80;61.40
2539;DHT22;1280;49.760;9.664;2023-09-12T15:13:51;28.80;61.10
2539;DHT22;1280;49.760;9.664;2023-09-12T15:16:20;28.80;61.30
2539;DHT22;1280;49.760;9.664;2023-09-12T15:18:50;28.90;61.30
2539;DHT22;1280;49.760;9.664;2023-09-12T15:21:19;28.90;61.20
2539;DHT22;1280;49.760;9.664;2023-09-12T15:23:47;28.90;61.10
2539;DHT22;1280;49.760;9.664;2023-09-12T15:26:15;28.90;61.40
2539;DHT22;1280;49.760;9.664;2023-09-12T15:28:43;28.80;61.80
2539;DHT22;1280;49.760;9.664;2023-09-12T15:31:11;28.80;62.10
2539;DHT22;1280;49.760;9.664;2023-09-12T15:33:41;28.80;62.50
2539;DHT22;1280;49.760;9.664;2023-09-12T15:36:09;28.70;62.60
2539;DHT22;1280;49.760;9.664;2023-09-12T15:38:37;28.70;62.70
2539;DHT22;1280;49.760;9.664;2023-09-12T15:41:05;28.60;63.00
2539;DHT22;1280;49.760;9.664;2023-09-12T15:43:34;28.60;63.20
2539;DHT22;1280;49.760;9.664;2023-09-12T15:46:03;28.50;63.50
2539;DHT22;1280;49.760;9.664;2023-09-12T15:48:31;28.50;63.80
2539;DHT22;1280;49.760;9.664;2023-09-12T15:51:00;28.50;63.90
2539;DHT22;1280;49.760;9.664;2023-09-12T15:53:32;28.40;64.10
2539;DHT22;1280;49.760;9.664;2023-09-12T15:56:00;28.40;64.20
2539;DHT22;1280;49.760;9.664;2023-09-12T15:58:28;28.40;64.10
2539;DHT22;1280;49.760;9.664;2023-09-12T16:00:56;28.40;64.30
2539;DHT22;1280;49.760;9.664;2023-09-12T16:03:26;28.40;64.30
2539;DHT22;1280;49.760;9.664;2023-09-12T16:05:54;28.40;64.20
2539;DHT22;1280;49.760;9.664;2023-09-12T16:08:24;28.50;64.30
2539;DHT22;1280;49.760;9.664;2023-09-12T16:10:53;28.50;64.30
2539;DHT22;1280;49.760;9.664;2023-09-12T16:13:22;28.40;64.30
2539;DHT22;1280;49.760;9.664;2023-09-12T16:15:50;28.40;64.50
2539;DHT22;1280;49.760;9.664;2023-09-12T16:18:18;28.40;64.70
2539;DHT22;1280;49.760;9.664;2023-09-12T16:20:46;28.40;64.80
2539;DHT22;1280;49.760;9.664;2023-09-12T16:23:15;28.30;64.90